sensor_id;sensor_type;location;lat;lon;timestamp;temperature;humidity
8939;DHT22;4504;48.810;9.172;2022-07-23T00:00:39;27.10;61.40
8939;DHT22;4504;48.810;9.172;2022-07-23T00:03:06;27.00;61.70
8939;DHT22;4504;48.810;9.172;2022-07-23T00:05:35;26.90;62.10
8939;DHT22;4504;48.810;9.172;2022-07-23T00:08:04;26.80;62.70
8939;DHT22;4504;48.810;9.172;2022-07-23T00:10:31;26.90;62.90
8939;DHT22;4504;48.810;9.172;2022-07-23T00:12:58;26.80;63.00
8939;DHT22;4504;48.810;9.172;2022-07-23T00:15:25;26.80;63.10
8939;DHT22;4504;48.810;9.172;2022-07-23T00:17:52;26.80;63.30
8939;DHT22;4504;48.810;9.172;2022-07-23T00:20:19;26.70;63.40
8939;DHT22;4504;48.810;9.172;2022-07-23T00:22:47;26.80;63.70
8939;DHT22;4504;48.810;9.172;2022-07-23T00:25:15;26.70;64.00
8939;DHT22;4504;48.810;9.172;2022-07-23T00:27:43;26.70;64.20
8939;DHT22;4504;48.810;9.172;2022-07-23T00:30:12;26.60;64.50
8939;DHT22;4504;48.810;9.172;2022-07-23T00:32:46;26.50;65.20
8939;DHT22;4504;48.810;9.172;2022-07-23T00:35:14;26.50;65.40
8939;DHT22;4504;48.810;9.172;2022-07-23T00:37:41;26.50;65.50
8939;DHT22;4504;48.810;9.172;2022-07-23T00:40:09;26.50;65.50
8939;DHT22;4504;48.810;9.172;2022-07-23T00:42:38;26.50;66.50
8939;DHT22;4504;48.810;9.172;2022-07-23T00:45:07;26.40;65.80
8939;DHT22;4504;48.810;9.172;2022-07-23T00:47:34;26.30;67.00
8939;DHT22;4504;48.810;9.172;2022-07-23T00:50:02;26.20;67.40
8939;DHT22;4504;48.810;9.172;2022-07-23T00:52:30;26.20;68.20
8939;DHT22;4504;48.810;9.172;2022-07-23T00:54:58;26.00;68.80
8939;DHT22;4504;48.810;9.172;2022-07-23T00:57:25;25.90;68.90
8939;DHT22;4504;48.810;9.172;2022-07-23T00:59:54;26.00;69.10
8939;DHT22;4504;48.810;9.172;2022-07-23T01:02:21;25.80;69.50
8939;DHT22;4504;48.810;9.172;2022-07-23T01:04:48;26.00;69.30
8939;DHT22;4504;48.810;9.172;2022-07-23T01:07:16;26.00;68.80
8939;DHT22;4504;48.810;9.172;2022-07-23T01:09:44;25.90;68.90
8939;DHT22;4504;48.810;9.172;2022-07-23T01:12:11;25.90;69.40
8939;DHT22;4504;48.810;9.172;2022-07-23T01:14:38;26.00;69.60
8939;DHT22;4504;48.810;9.172;2022-07-23T01:17:07;26.00;69.80
8939;DHT22;4504;48.810;9.172;2022-07-23T01:19:34;26.00;70.00
8939;DHT22;4504;48.810;9.172;2022-07-23T01:22:03;25.90;70.40
8939;DHT22;4504;48.810;9.172;2022-07-23T01:24:32;25.80;70.90
8939;DHT22;4504;48.810;9.172;2022-07-23T01:27:03;25.80;71.30
8939;DHT22;4504;48.810;9.172;2022-07-23T01:29:31;25.80;72.30
8939;DHT22;4504;48.810;9.172;2022-07-23T01:32:02;25.70;71.60
8939;DHT22;4504;48.810;9.172;2022-07-23T01:34:29;25.70;71.60
8939;DHT22;4504;48.810;9.172;2022-07-23T01:36:56;25.70;72.10
8939;DHT22;4504;48.810;9.172;2022-07-23T01:39:23;25.60;72.70
8939;DHT22;4504;48.810;9.172;2022-07-23T01:41:53;25.60;73.40
8939;DHT22;4504;48.810;9.172;2022-07-23T01:44:20;25.50;72.60
8939;DHT22;4504;48.810;9.172;2022-07-23T01:46:48;25.50;72.60
8939;DHT22;4504;48.810;9.172;2022-07-23T01:49:16;25.40;73.00
8939;DHT22;4504;48.810;9.172;2022-07-23T01:52:02;25.40;73.30
8939;DHT22;4504;48.810;9.172;2022-07-23T01:54:44;25.40;73.20
8939;DHT22;4504;48.810;9.172;2022-07-23T01:57:12;25.40;73.60
8939;DHT22;4504;48.810;9.172;2022-07-23T01:59:39;25.50;73.60
8939;DHT22;4504;48.810;9.172;2022-07-23T02:02:08;25.50;73.40
8939;DHT22;4504;48.810;9.172;2022-07-23T02:04:36;25.50;73.50
8939;DHT22;4504;48.810;9.172;2022-07-23T02:07:04;25.50;73.60
8939;DHT22;4504;48.810;9.172;2022-07-23T02:09:32;25.40;73.90
8939;DHT22;4504;48.810;9.172;2022-07-23T02:11:59;25.30;74.20
8939;DHT22;4504;48.810;9.172;2022-07-23T02:14:27;25.30;74.40
8939;DHT22;4504;48.810;9.172;2022-07-23T02:16:54;25.30;74.40
8939;DHT22;4504;48.810;9.172;2022-07-23T02:19:21;25.30;74.90
8939;DHT22;4504;48.810;9.172;2022-07-23T02:21:49;25.40;74.70
8939;DHT22;4504;48.810;9.172;2022-07-23T02:24:18;25.30;74.90
8939;DHT22;4504;48.810;9.172;2022-07-23T02:26:45;25.30;74.90
8939;DHT22;4504;48.810;9.172;2022-07-23T02:29:13;25.30;75.40
8939;DHT22;4504;48.810;9.172;2022-07-23T02:31:41;25.30;75.30
8939;DHT22;4504;48.810;9.172;2022-07-23T02:34:08;25.30;75.60
8939;DHT22;4504;48.810;9.172;2022-07-23T02:36:37;25.20;75.50
8939;DHT22;4504;48.810;9.172;2022-07-23T02:39:05;25.20;75.80
8939;DHT22;4504;48.810;9.172;2022-07-23T02:41:34;25.20;75.90
8939;DHT22;4504;48.810;9.172;2022-07-23T02:44:01;25.20;76.20
8939;DHT22;4504;48.810;9.172;2022-07-23T02:46:27;25.20;76.10
8939;DHT22;4504;48.810;9.172;2022-07-23T02:48:57;25.10;76.30
8939;DHT22;4504;48.810;9.172;2022-07-23T02:51:24;25.10;75.80
8939;DHT22;4504;48.810;9.172;2022-07-23T02:53:56;25.10;76.10
8939;DHT22;4504;48.810;9.172;2022-07-23T02:56:24;25.10;76.40
8939;DHT22;4504;48.810;9.172;2022-07-23T02:58:51;25.00;77.00
8939;DHT22;4504;48.810;9.172;2022-07-23T03:01:18;25.00;77.60
8939;DHT22;4504;48.810;9.172;2022-07-23T03:03:46;25.10;77.80
8939;DHT22;4504;48.810;9.172;2022-07-23T03:06:14;25.00;77.70
8939;DHT22;4504;48.810;9.172;2022-07-23T03:08:41;25.00;77.70
8939;DHT22;4504;48.810;9.172;2022-07-23T03:11:08;25.00;77.50
8939;DHT22;4504;48.810;9.172;2022-07-23T03:13:38;24.90;77.70
8939;DHT22;4504;48.810;9.172;2022-07-23T03:16:06;24.90;77.80
8939;DHT22;4504;48.810;9.172;2022-07-23T03:18:35;24.80;78.10
8939;DHT22;4504;48.810;9.172;2022-07-23T03:21:03;24.80;78.60
8939;DHT22;4504;48.810;9.172;2022-07-23T03:23:32;24.70;78.90
8939;DHT22;4504;48.810;9.172;2022-07-23T03:25:59;24.80;78.90
8939;DHT22;4504;48.810;9.172;2022-07-23T03:28:26;24.80;79.20
8939;DHT22;4504;48.810;9.172;2022-07-23T03:30:53;24.80;79.50
8939;DHT22;4504;48.810;9.172;2022-07-23T03:33:20;24.80;79.90
8939;DHT22;4504;48.810;9.172;2022-07-23T03:35:48;24.70;79.80
8939;DHT22;4504;48.810;9.172;2022-07-23T03:38:22;24.70;80.20
8939;DHT22;4504;48.810;9.172;2022-07-23T03:40:51;24.70;80.20
8939;DHT22;4504;48.810;9.172;2022-07-23T03:43:18;24.70;80.00
8939;DHT22;4504;48.810;9.172;2022-07-23T03:45:45;24.70;80.10
8939;DHT22;4504;48.810;9.172;2022-07-23T03:48:14;24.60;80.30
8939;DHT22;4504;48.810;9.172;2022-07-23T03:50:41;24.50;80.70
8939;DHT22;4504;48.810;9.172;2022-07-23T03:53:08;24.60;80.60
8939;DHT22;4504;48.810;9.172;2022-07-23T03:55:35;24.60;80.70
8939;DHT22;4504;48.810;9.172;2022-07-23T03:58:03;24.60;80.60
8939;DHT22;4504;48.810;9.172;2022-07-23T04:00:31;24.60;81.20
8939;DHT22;4504;48.810;9.172;2022-07-23T04:02:58;24.60;81.60
8939;DHT22;4504;48.810;9.172;2022-07-23T04:05:25;24.60;81.40
8939;DHT22;4504;48.810;9.172;2022-07-23T04:08:00;24.60;81.30
8939;DHT22;4504;48.810;9.172;2022-07-23T04:10:27;24.60;80.80
8939;DHT22;4504;48.810;9.172;2022-07-23T04:12:54;24.60;80.80
8939;DHT22;4504;48.810;9.172;2022-07-23T04:15:22;24.60;80.60
8939;DHT22;4504;48.810;9.172;2022-07-23T04:17:49;24.50;80.70
8939;DHT22;4504;48.810;9.172;2022-07-23T04:20:18;24.50;80.70
8939;DHT22;4504;48.810;9.172;2022-07-23T04:22:53;24.50;81.10
8939;DHT22;4504;48.810;9.172;2022-07-23T04:25:20;24.60;81.40
8939;DHT22;4504;48.810;9.172;2022-07-23T04:27:47;24.60;81.00
8939;DHT22;4504;48.810;9.172;2022-07-23T04:30:14;24.60;81.30
8939;DHT22;4504;48.810;9.172;2022-07-23T04:32:43;24.60;81.20
8939;DHT22;4504;48.810;9.172;2022-07-23T04:35:18;24.70;81.30
8939;DHT22;4504;48.810;9.172;2022-07-23T04:37:45;24.60;81.20
8939;DHT22;4504;48.810;9.172;2022-07-23T04:40:14;24.60;81.30
8939;DHT22;4504;48.810;9.172;2022-07-23T04:42:41;24.50;81.60
8939;DHT22;4504;48.810;9.172;2022-07-23T04:45:09;24.50;81.50
8939;DHT22;4504;48.810;9.172;2022-07-23T04:47:37;24.50;81.40
8939;DHT22;4504;48.810;9.172;2022-07-23T04:50:06;24.50;81.10
8939;DHT22;4504;48.810;9.172;2022-07-23T04:52:35;24.50;81.00
8939;DHT22;4504;48.810;9.172;2022-07-23T04:55:02;24.50;81.00
8939;DHT22;4504;48.810;9.172;2022-07-23T04:57:29;24.50;81.10
8939;DHT22;4504;48.810;9.172;2022-07-23T04:59:57;24.50;81.50
8939;DHT22;4504;48.810;9.172;2022-07-23T05:02:24;24.50;81.00
8939;DHT22;4504;48.810;9.172;2022-07-23T05:04:51;24.40;81.20
8939;DHT22;4504;48.810;9.172;2022-07-23T05:07:20;24.50;81.20
8939;DHT22;4504;48.810;9.172;2022-07-23T05:09:47;24.60;81.40
8939;DHT22;4504;48.810;9.172;2022-07-23T05:12:14;24.60;81.30
8939;DHT22;4504;48.810;9.172;2022-07-23T05:14:43;24.50;81.60
8939;DHT22;4504;48.810;9.172;2022-07-23T05:17:10;24.60;82.30
8939;DHT22;4504;48.810;9.172;2022-07-23T05:19:38;24.50;81.30
8939;DHT22;4504;48.810;9.172;2022-07-23T05:22:05;24.50;81.70
8939;DHT22;4504;48.810;9.172;2022-07-23T05:24:34;24.50;82.00
8939;DHT22;4504;48.810;9.172;2022-07-23T05:27:02;24.50;82.00
8939;DHT22;4504;48.810;9.172;2022-07-23T05:29:29;24.50;82.20
8939;DHT22;4504;48.810;9.172;2022-07-23T05:31:55;24.60;82.10
8939;DHT22;4504;48.810;9.172;2022-07-23T05:34:23;24.60;82.20
8939;DHT22;4504;48.810;9.172;2022-07-23T05:36:50;24.60;82.60
8939;DHT22;4504;48.810;9.172;2022-07-23T05:39:17;24.60;82.90
8939;DHT22;4504;48.810;9.172;2022-07-23T05:41:46;24.70;82.60
8939;DHT22;4504;48.810;9.172;2022-07-23T05:44:13;24.70;82.10
8939;DHT22;4504;48.810;9.172;2022-07-23T05:46:43;24.70;81.80
8939;DHT22;4504;48.810;9.172;2022-07-23T05:49:14;24.70;82.00
8939;DHT22;4504;48.810;9.172;2022-07-23T05:52:04;24.70;82.40
8939;DHT22;4504;48.810;9.172;2022-07-23T05:54:47;24.80;83.10
8939;DHT22;4504;48.810;9.172;2022-07-23T05:57:16;24.70;82.50
8939;DHT22;4504;48.810;9.172;2022-07-23T05:59:43;24.80;82.00
8939;DHT22;4504;48.810;9.172;2022-07-23T06:02:10;24.80;82.10
8939;DHT22;4504;48.810;9.172;2022-07-23T06:04:38;24.80;82.00
8939;DHT22;4504;48.810;9.172;2022-07-23T06:07:20;24.80;82.20
8939;DHT22;4504;48.810;9.172;2022-07-23T06:09:48;24.80;81.00
8939;DHT22;4504;48.810;9.172;2022-07-23T06:12:17;24.90;81.30
8939;DHT22;4504;48.810;9.172;2022-07-23T06:14:44;24.80;81.30
8939;DHT22;4504;48.810;9.172;2022-07-23T06:17:15;24.70;82.20
8939;DHT22;4504;48.810;9.172;2022-07-23T06:19:42;24.70;82.40
8939;DHT22;4504;48.810;9.172;2022-07-23T06:22:09;24.80;81.70
8939;DHT22;4504;48.810;9.172;2022-07-23T06:24:36;24.80;81.40
8939;DHT22;4504;48.810;9.172;2022-07-23T06:27:03;24.60;81.20
8939;DHT22;4504;48.810;9.172;2022-07-23T06:29:32;24.70;81.20
8939;DHT22;4504;48.810;9.172;2022-07-23T06:31:59;24.50;81.10
8939;DHT22;4504;48.810;9.172;2022-07-23T06:34:27;24.50;80.60
8939;DHT22;4504;48.810;9.172;2022-07-23T06:36:55;24.50;80.30
8939;DHT22;4504;48.810;9.172;2022-07-23T06:39:22;24.50;79.40
8939;DHT22;4504;48.810;9.172;2022-07-23T06:41:50;24.60;79.70
8939;DHT22;4504;48.810;9.172;2022-07-23T06:44:17;24.60;79.10
8939;DHT22;4504;48.810;9.172;2022-07-23T06:46:48;24.60;80.00
8939;DHT22;4504;48.810;9.172;2022-07-23T06:49:15;24.60;78.80
8939;DHT22;4504;48.810;9.172;2022-07-23T06:51:42;24.60;79.50
8939;DHT22;4504;48.810;9.172;2022-07-23T06:54:10;24.70;79.90
8939;DHT22;4504;48.810;9.172;2022-07-23T06:56:37;24.70;79.40
8939;DHT22;4504;48.810;9.172;2022-07-23T06:59:04;24.60;79.40
8939;DHT22;4504;48.810;9.172;2022-07-23T07:01:32;24.60;80.30
8939;DHT22;4504;48.810;9.172;2022-07-23T07:04:00;24.50;80.30
8939;DHT22;4504;48.810;9.172;2022-07-23T07:06:27;24.40;81.00
8939;DHT22;4504;48.810;9.172;2022-07-23T07:08:54;24.40;81.20
8939;DHT22;4504;48.810;9.172;2022-07-23T07:11:21;24.40;81.50
8939;DHT22;4504;48.810;9.172;2022-07-23T07:13:49;24.30;81.90
8939;DHT22;4504;48.810;9.172;2022-07-23T07:16:16;24.40;82.40
8939;DHT22;4504;48.810;9.172;2022-07-23T07:18:43;24.40;82.60
8939;DHT22;4504;48.810;9.172;2022-07-23T07:21:12;24.30;83.00
8939;DHT22;4504;48.810;9.172;2022-07-23T07:23:39;24.30;83.50
8939;DHT22;4504;48.810;9.172;2022-07-23T07:26:06;24.20;84.00
8939;DHT22;4504;48.810;9.172;2022-07-23T07:28:33;24.20;84.40
8939;DHT22;4504;48.810;9.172;2022-07-23T07:31:00;24.30;84.00
8939;DHT22;4504;48.810;9.172;2022-07-23T07:33:27;24.30;84.90
8939;DHT22;4504;48.810;9.172;2022-07-23T07:35:54;24.30;87.60
8939;DHT22;4504;48.810;9.172;2022-07-23T07:38:23;24.20;89.10
8939;DHT22;4504;48.810;9.172;2022-07-23T07:40:50;24.10;90.20
8939;DHT22;4504;48.810;9.172;2022-07-23T07:43:17;24.00;90.60
8939;DHT22;4504;48.810;9.172;2022-07-23T07:45:44;23.80;91.00
8939;DHT22;4504;48.810;9.172;2022-07-23T07:48:11;23.70;91.30
8939;DHT22;4504;48.810;9.172;2022-07-23T07:50:38;23.60;91.40
8939;DHT22;4504;48.810;9.172;2022-07-23T07:53:05;23.70;91.70
8939;DHT22;4504;48.810;9.172;2022-07-23T07:55:33;23.70;91.50
8939;DHT22;4504;48.810;9.172;2022-07-23T07:58:00;23.70;91.80
8939;DHT22;4504;48.810;9.172;2022-07-23T08:00:27;23.70;90.80
8939;DHT22;4504;48.810;9.172;2022-07-23T08:02:54;23.80;91.60
8939;DHT22;4504;48.810;9.172;2022-07-23T08:05:23;23.70;91.50
8939;DHT22;4504;48.810;9.172;2022-07-23T08:07:51;23.70;91.90
8939;DHT22;4504;48.810;9.172;2022-07-23T08:10:19;23.70;91.80
8939;DHT22;4504;48.810;9.172;2022-07-23T08:12:50;23.70;91.70
8939;DHT22;4504;48.810;9.172;2022-07-23T08:15:20;23.60;91.30
8939;DHT22;4504;48.810;9.172;2022-07-23T08:17:48;23.80;91.70
8939;DHT22;4504;48.810;9.172;2022-07-23T08:20:17;23.80;91.50
8939;DHT22;4504;48.810;9.172;2022-07-23T08:22:46;23.90;91.50
8939;DHT22;4504;48.810;9.172;2022-07-23T08:25:14;23.90;91.30
8939;DHT22;4504;48.810;9.172;2022-07-23T08:27:41;23.90;91.40
8939;DHT22;4504;48.810;9.172;2022-07-23T08:30:10;23.90;91.50
8939;DHT22;4504;48.810;9.172;2022-07-23T08:32:57;23.80;91.80
8939;DHT22;4504;48.810;9.172;2022-07-23T08:35:28;23.90;91.60
8939;DHT22;4504;48.810;9.172;2022-07-23T08:37:56;24.00;91.30
8939;DHT22;4504;48.810;9.172;2022-07-23T08:40:26;24.10;91.40
8939;DHT22;4504;48.810;9.172;2022-07-23T08:42:53;24.20;91.10
8939;DHT22;4504;48.810;9.172;2022-07-23T08:45:23;24.20;90.10
8939;DHT22;4504;48.810;9.172;2022-07-23T08:47:51;24.30;89.50
8939;DHT22;4504;48.810;9.172;2022-07-23T08:50:24;24.40;90.10
8939;DHT22;4504;48.810;9.172;2022-07-23T08:52:53;24.40;90.00
8939;DHT22;4504;48.810;9.172;2022-07-23T08:55:21;24.50;90.10
8939;DHT22;4504;48.810;9.172;2022-07-23T08:57:51;24.50;90.00
8939;DHT22;4504;48.810;9.172;2022-07-23T09:00:21;24.60;88.20
8939;DHT22;4504;48.810;9.172;2022-07-23T09:02:49;24.70;87.30
8939;DHT22;4504;48.810;9.172;2022-07-23T09:05:18;24.60;88.30
8939;DHT22;4504;48.810;9.172;2022-07-23T09:08:08;24.60;88.00
8939;DHT22;4504;48.810;9.172;2022-07-23T09:10:51;24.80;84.40
8939;DHT22;4504;48.810;9.172;2022-07-23T09:13:31;24.80;85.50
8939;DHT22;4504;48.810;9.172;2022-07-23T09:16:01;25.00;86.30
8939;DHT22;4504;48.810;9.172;2022-07-23T09:18:35;25.10;85.30
8939;DHT22;4504;48.810;9.172;2022-07-23T09:21:20;25.20;85.20
8939;DHT22;4504;48.810;9.172;2022-07-23T09:23:51;25.20;84.20
8939;DHT22;4504;48.810;9.172;2022-07-23T09:26:24;25.30;84.20
8939;DHT22;4504;48.810;9.172;2022-07-23T09:28:57;25.30;83.50
8939;DHT22;4504;48.810;9.172;2022-07-23T09:31:31;25.30;82.30
8939;DHT22;4504;48.810;9.172;2022-07-23T09:34:07;25.40;82.20
8939;DHT22;4504;48.810;9.172;2022-07-23T09:36:35;25.40;82.00
8939;DHT22;4504;48.810;9.172;2022-07-23T09:39:02;25.50;80.90
8939;DHT22;4504;48.810;9.172;2022-07-23T09:41:35;25.50;78.80
8939;DHT22;4504;48.810;9.172;2022-07-23T09:44:11;25.60;78.20
8939;DHT22;4504;48.810;9.172;2022-07-23T09:46:40;25.60;77.50
8939;DHT22;4504;48.810;9.172;2022-07-23T09:49:14;25.80;75.40
8939;DHT22;4504;48.810;9.172;2022-07-23T09:51:53;25.90;75.10
8939;DHT22;4504;48.810;9.172;2022-07-23T09:54:30;25.90;76.30
8939;DHT22;4504;48.810;9.172;2022-07-23T09:57:03;25.90;76.00
8939;DHT22;4504;48.810;9.172;2022-07-23T09:59:33;25.80;76.20
8939;DHT22;4504;48.810;9.172;2022-07-23T10:02:03;25.80;75.90
8939;DHT22;4504;48.810;9.172;2022-07-23T10:04:37;26.00;75.30
8939;DHT22;4504;48.810;9.172;2022-07-23T10:07:13;26.00;74.20
8939;DHT22;4504;48.810;9.172;2022-07-23T10:10:10;26.00;74.60
8939;DHT22;4504;48.810;9.172;2022-07-23T10:12:38;26.00;74.30
8939;DHT22;4504;48.810;9.172;2022-07-23T10:15:28;26.10;73.30
8939;DHT22;4504;48.810;9.172;2022-07-23T10:17:57;26.20;73.00
8939;DHT22;4504;48.810;9.172;2022-07-23T10:20:24;26.30;72.70
8939;DHT22;4504;48.810;9.172;2022-07-23T10:23:00;26.40;72.50
8939;DHT22;4504;48.810;9.172;2022-07-23T10:25:34;26.50;72.60
8939;DHT22;4504;48.810;9.172;2022-07-23T10:28:26;26.50;70.50
8939;DHT22;4504;48.810;9.172;2022-07-23T10:31:02;26.40;73.30
8939;DHT22;4504;48.810;9.172;2022-07-23T10:33:46;26.50;74.00
8939;DHT22;4504;48.810;9.172;2022-07-23T10:36:21;26.40;73.90
8939;DHT22;4504;48.810;9.172;2022-07-23T10:38:53;26.40;73.40
8939;DHT22;4504;48.810;9.172;2022-07-23T10:41:31;26.60;71.90
8939;DHT22;4504;48.810;9.172;2022-07-23T10:44:07;26.90;70.10
8939;DHT22;4504;48.810;9.172;2022-07-23T10:46:56;27.00;70.00
8939;DHT22;4504;48.810;9.172;2022-07-23T10:49:39;27.10;68.40
8939;DHT22;4504;48.810;9.172;2022-07-23T10:52:17;27.20;68.40
8939;DHT22;4504;48.810;9.172;2022-07-23T10:54:52;27.20;68.80
8939;DHT22;4504;48.810;9.172;2022-07-23T10:57:31;27.30;67.70
8939;DHT22;4504;48.810;9.172;2022-07-23T11:00:21;27.40;68.10
8939;DHT22;4504;48.810;9.172;2022-07-23T11:02:50;27.50;68.60
8939;DHT22;4504;48.810;9.172;2022-07-23T11:05:20;27.50;69.70
8939;DHT22;4504;48.810;9.172;2022-07-23T11:08:10;27.60;69.00
8939;DHT22;4504;48.810;9.172;2022-07-23T11:10:42;27.70;68.40
8939;DHT22;4504;48.810;9.172;2022-07-23T11:13:27;27.70;68.00
8939;DHT22;4504;48.810;9.172;2022-07-23T11:16:05;27.80;65.50
8939;DHT22;4504;48.810;9.172;2022-07-23T11:21:44;27.70;66.90
8939;DHT22;4504;48.810;9.172;2022-07-23T11:24:12;27.50;68.40
8939;DHT22;4504;48.810;9.172;2022-07-23T11:26:45;27.50;68.00
8939;DHT22;4504;48.810;9.172;2022-07-23T11:29:41;27.50;68.40
8939;DHT22;4504;48.810;9.172;2022-07-23T11:32:31;27.30;67.90
8939;DHT22;4504;48.810;9.172;2022-07-23T11:35:01;27.40;68.60
8939;DHT22;4504;48.810;9.172;2022-07-23T11:37:33;27.40;67.90
8939;DHT22;4504;48.810;9.172;2022-07-23T11:40:02;27.30;68.60
8939;DHT22;4504;48.810;9.172;2022-07-23T11:42:29;27.30;68.70
8939;DHT22;4504;48.810;9.172;2022-07-23T11:44:56;27.30;69.60
8939;DHT22;4504;48.810;9.172;2022-07-23T11:47:25;27.30;69.50
8939;DHT22;4504;48.810;9.172;2022-07-23T11:49:53;27.30;69.70
8939;DHT22;4504;48.810;9.172;2022-07-23T11:52:21;27.40;69.30
8939;DHT22;4504;48.810;9.172;2022-07-23T11:54:51;27.50;68.00
8939;DHT22;4504;48.810;9.172;2022-07-23T11:57:19;27.50;69.10
8939;DHT22;4504;48.810;9.172;2022-07-23T11:59:49;27.50;68.50
8939;DHT22;4504;48.810;9.172;2022-07-23T12:02:19;27.60;68.70
8939;DHT22;4504;48.810;9.172;2022-07-23T12:04:48;27.80;67.90
8939;DHT22;4504;48.810;9.172;2022-07-23T12:07:29;27.80;68.20
8939;DHT22;4504;48.810;9.172;2022-07-23T12:09:59;27.80;67.40
8939;DHT22;4504;48.810;9.172;2022-07-23T12:12:26;27.90;66.40
8939;DHT22;4504;48.810;9.172;2022-07-23T12:14:55;27.90;67.10
8939;DHT22;4504;48.810;9.172;2022-07-23T12:17:27;28.00;67.20
8939;DHT22;4504;48.810;9.172;2022-07-23T12:19:56;28.10;67.50
8939;DHT22;4504;48.810;9.172;2022-07-23T12:22:23;28.30;65.40
8939;DHT22;4504;48.810;9.172;2022-07-23T12:24:57;28.40;64.90
8939;DHT22;4504;48.810;9.172;2022-07-23T12:27:26;28.60;63.80
8939;DHT22;4504;48.810;9.172;2022-07-23T12:29:53;28.70;62.30
8939;DHT22;4504;48.810;9.172;2022-07-23T12:32:22;28.70;62.80
8939;DHT22;4504;48.810;9.172;2022-07-23T12:34:53;28.60;63.30
8939;DHT22;4504;48.810;9.172;2022-07-23T12:37:30;28.60;62.70
8939;DHT22;4504;48.810;9.172;2022-07-23T12:40:19;28.60;63.80
8939;DHT22;4504;48.810;9.172;2022-07-23T12:42:47;28.70;63.90
8939;DHT22;4504;48.810;9.172;2022-07-23T12:45:15;28.80;62.70
8939;DHT22;4504;48.810;9.172;2022-07-23T12:48:06;29.00;63.00
8939;DHT22;4504;48.810;9.172;2022-07-23T12:50:41;29.10;62.70
8939;DHT22;4504;48.810;9.172;2022-07-23T12:53:12;29.40;62.60
8939;DHT22;4504;48.810;9.172;2022-07-23T12:55:41;29.60;62.40
8939;DHT22;4504;48.810;9.172;2022-07-23T12:58:11;29.50;61.80
8939;DHT22;4504;48.810;9.172;2022-07-23T13:00:56;29.50;60.80
8939;DHT22;4504;48.810;9.172;2022-07-23T13:03:25;29.50;61.90
8939;DHT22;4504;48.810;9.172;2022-07-23T13:05:52;29.50;61.30
8939;DHT22;4504;48.810;9.172;2022-07-23T13:08:20;29.60;59.70
8939;DHT22;4504;48.810;9.172;2022-07-23T13:10:49;29.70;59.80
8939;DHT22;4504;48.810;9.172;2022-07-23T13:13:19;29.70;59.30
8939;DHT22;4504;48.810;9.172;2022-07-23T13:15:47;29.70;58.90
8939;DHT22;4504;48.810;9.172;2022-07-23T13:18:14;29.50;58.70
8939;DHT22;4504;48.810;9.172;2022-07-23T13:20:42;29.40;59.00
8939;DHT22;4504;48.810;9.172;2022-07-23T13:23:09;29.40;59.30
8939;DHT22;4504;48.810;9.172;2022-07-23T13:25:36;29.30;59.60
8939;DHT22;4504;48.810;9.172;2022-07-23T13:28:05;29.30;59.40
8939;DHT22;4504;48.810;9.172;2022-07-23T13:30:33;29.40;59.10
8939;DHT22;4504;48.810;9.172;2022-07-23T13:33:01;29.30;58.70
8939;DHT22;4504;48.810;9.172;2022-07-23T13:35:28;29.40;59.10
8939;DHT22;4504;48.810;9.172;2022-07-23T13:37:55;29.60;59.40
8939;DHT22;4504;48.810;9.172;2022-07-23T13:40:22;29.70;59.50
8939;DHT22;4504;48.810;9.172;2022-07-23T13:42:49;29.70;58.90
8939;DHT22;4504;48.810;9.172;2022-07-23T13:45:18;29.70;58.70
8939;DHT22;4504;48.810;9.172;2022-07-23T13:47:45;29.80;58.80
8939;DHT22;4504;48.810;9.172;2022-07-23T13:50:12;29.80;59.00
8939;DHT22;4504;48.810;9.172;2022-07-23T13:52:41;29.90;59.20
8939;DHT22;4504;48.810;9.172;2022-07-23T13:55:09;29.90;59.70
8939;DHT22;4504;48.810;9.172;2022-07-23T13:57:36;29.90;59.60
8939;DHT22;4504;48.810;9.172;2022-07-23T14:00:04;30.00;59.50
8939;DHT22;4504;48.810;9.172;2022-07-23T14:02:35;30.00;59.60
8939;DHT22;4504;48.810;9.172;2022-07-23T14:05:04;30.00;59.70
8939;DHT22;4504;48.810;9.172;2022-07-23T14:07:31;30.20;59.50
8939;DHT22;4504;48.810;9.172;2022-07-23T14:09:58;30.40;58.50
8939;DHT22;4504;48.810;9.172;2022-07-23T14:12:25;30.40;56.70
8939;DHT22;4504;48.810;9.172;2022-07-23T14:14:59;30.40;56.10
8939;DHT22;4504;48.810;9.172;2022-07-23T14:17:26;30.40;57.40
8939;DHT22;4504;48.810;9.172;2022-07-23T14:19:54;30.40;56.90
8939;DHT22;4504;48.810;9.172;2022-07-23T14:22:21;30.50;57.30
8939;DHT22;4504;48.810;9.172;2022-07-23T14:24:49;30.60;56.50
8939;DHT22;4504;48.810;9.172;2022-07-23T14:27:16;30.70;55.90
8939;DHT22;4504;48.810;9.172;2022-07-23T14:29:43;30.70;56.70
8939;DHT22;4504;48.810;9.172;2022-07-23T14:32:11;30.90;57.00
8939;DHT22;4504;48.810;9.172;2022-07-23T14:34:38;30.90;55.40
8939;DHT22;4504;48.810;9.172;2022-07-23T14:37:06;31.00;55.80
8939;DHT22;4504;48.810;9.172;2022-07-23T14:39:33;31.20;54.30
8939;DHT22;4504;48.810;9.172;2022-07-23T14:42:01;31.20;54.50
8939;DHT22;4504;48.810;9.172;2022-07-23T14:44:28;31.20;53.10
8939;DHT22;4504;48.810;9.172;2022-07-23T14:46:56;31.30;53.80
8939;DHT22;4504;48.810;9.172;2022-07-23T14:49:23;31.30;53.30
8939;DHT22;4504;48.810;9.172;2022-07-23T14:51:50;31.30;52.50
8939;DHT22;4504;48.810;9.172;2022-07-23T14:54:18;31.30;52.50
8939;DHT22;4504;48.810;9.172;2022-07-23T14:56:46;31.50;53.40
8939;DHT22;4504;48.810;9.172;2022-07-23T14:59:13;31.50;51.60
8939;DHT22;4504;48.810;9.172;2022-07-23T15:01:40;31.40;51.50
8939;DHT22;4504;48.810;9.172;2022-07-23T15:04:07;31.30;52.20
8939;DHT22;4504;48.810;9.172;2022-07-23T15:06:34;31.30;51.30
8939;DHT22;4504;48.810;9.172;2022-07-23T15:09:02;31.50;51.90
8939;DHT22;4504;48.810;9.172;2022-07-23T15:11:31;31.70;52.50
8939;DHT22;4504;48.810;9.172;2022-07-23T15:14:00;31.70;52.10
8939;DHT22;4504;48.810;9.172;2022-07-23T15:16:27;31.50;51.70
8939;DHT22;4504;48.810;9.172;2022-07-23T15:18:54;31.40;52.80
8939;DHT22;4504;48.810;9.172;2022-07-23T15:21:21;31.40;52.60
8939;DHT22;4504;48.810;9.172;2022-07-23T15:23:48;31.30;52.00
8939;DHT22;4504;48.810;9.172;2022-07-23T15:26:16;31.10;52.00
8939;DHT22;4504;48.810;9.172;2022-07-23T15:28:45;31.00;52.60
8939;DHT22;4504;48.810;9.172;2022-07-23T15:31:12;31.00;53.20
8939;DHT22;4504;48.810;9.172;2022-07-23T15:33:39;31.00;53.10
8939;DHT22;4504;48.810;9.172;2022-07-23T15:36:07;31.10;53.20
8939;DHT22;4504;48.810;9.172;2022-07-23T15:38:35;31.10;51.90
8939;DHT22;4504;48.810;9.172;2022-07-23T15:41:02;31.20;52.10
8939;DHT22;4504;48.810;9.172;2022-07-23T15:43:29;31.30;52.20
8939;DHT22;4504;48.810;9.172;2022-07-23T15:45:57;31.30;52.50
8939;DHT22;4504;48.810;9.172;2022-07-23T15:48:25;31.40;52.40
8939;DHT22;4504;48.810;9.172;2022-07-23T15:50:52;31.50;51.80
8939;DHT22;4504;48.810;9.172;2022-07-23T15:53:19;31.60;51.90
8939;DHT22;4504;48.810;9.172;2022-07-23T15:55:46;31.60;51.30
8939;DHT22;4504;48.810;9.172;2022-07-23T15:58:13;31.70;51.50
8939;DHT22;4504;48.810;9.172;2022-07-23T16:00:40;31.60;51.30
8939;DHT22;4504;48.810;9.172;2022-07-23T16:03:09;31.60;51.50
8939;DHT22;4504;48.810;9.172;2022-07-23T16:05:36;31.60;51.60
8939;DHT22;4504;48.810;9.172;2022-07-23T16:08:06;31.50;51.80
8939;DHT22;4504;48.810;9.172;2022-07-23T16:10:33;31.70;51.80
8939;DHT22;4504;48.810;9.172;2022-07-23T16:13:00;31.80;51.50
8939;DHT22;4504;48.810;9.172;2022-07-23T16:15:28;31.90;51.30
8939;DHT22;4504;48.810;9.172;2022-07-23T16:17:56;31.90;50.80
8939;DHT22;4504;48.810;9.172;2022-07-23T16:20:24;31.90;51.20